Time;durP1;ratioP1;P1;durP2;ratioP2;P2;SDS_P1;SDS_P2;PMS_P1;PMS_P2;Temp;Humidity;BMP_temperature;BMP_pressure;BME280_temperature;BME280_humidity;BME280_pressure;Samples;Min_cycle;Max_cycle;Signal;HPM_P1;HPM_P2
2023/09/01 00:00:38;;;;;;;16.02;9.38;;;;;;;13.72;100.00;101245.06;5050149;28;20060;-81
2023/09/01 00:03:03;;;;;;;21.10;9.50;;;;;;;13.75;100.00;101250.94;5050967;28;20045;-81
2023/09/01 00:05:33;;;;;;;22.35;9.23;;;;;;;13.75;100.00;101244.75;5051559;28;20048;-81
2023/09/01 00:07:58;;;;;;;19.40;8.93;;;;;;;13.77;100.00;101247.28;5050614;28;20037;-82
2023/09/01 00:10:23;;;;;;;17.90;9.23;;;;;;;13.79;100.00;101248.78;5034373;28;20474;-81
2023/09/01 00:12:49;;;;;;;20.27;8.88;;;;;;;13.78;100.00;101254.28;5049711;28;20363;-81
2023/09/01 00:15:14;;;;;;;19.17;8.70;;;;;;;13.79;100.00;101255.97;5052384;28;20079;-82
2023/09/01 00:17:39;;;;;;;16.40;8.57;;;;;;;13.79;100.00;101253.28;5050630;28;20029;-82
2023/09/01 00:20:05;;;;;;;14.45;9.25;;;;;;;13.78;100.00;101240.91;5051398;28;20033;-82
2023/09/01 00:22:31;;;;;;;17.02;8.48;;;;;;;13.77;100.00;101248.09;5051798;28;20029;-81
2023/09/01 00:24:56;;;;;;;13.25;7.15;;;;;;;13.77;100.00;101256.13;5051379;28;20491;-81
2023/09/01 00:27:22;;;;;;;13.75;7.60;;;;;;;13.77;100.00;101258.81;5051709;28;20473;-81
2023/09/01 00:29:47;;;;;;;20.95;7.22;;;;;;;13.75;100.00;101261.63;5052008;28;20106;-82
2023/09/01 00:48:42;;;;;;;10.60;3.80;;;;;;;13.74;100.00;101246.56;5261514;22;20112;-79
2023/09/01 00:51:07;;;;;;;7.82;3.00;;;;;;;13.73;100.00;101258.28;5032080;28;20421;-81
2023/09/01 00:53:33;;;;;;;7.97;3.22;;;;;;;13.71;100.00;101249.53;5034454;28;20191;-82
2023/09/01 00:55:59;;;;;;;6.18;3.13;;;;;;;13.73;100.00;101255.59;5034722;28;20182;-81
2023/09/01 00:58:25;;;;;;;9.13;3.30;;;;;;;13.71;100.00;101252.22;5034518;28;20029;-82
2023/09/01 01:00:52;;;;;;;9.18;3.20;;;;;;;13.73;100.00;101257.41;5034694;28;20116;-82
2023/09/01 01:03:17;;;;;;;12.10;3.58;;;;;;;13.72;100.00;101250.41;5034026;28;20061;-81
2023/09/01 01:05:49;;;;;;;5.20;2.75;;;;;;;13.71;100.00;101248.72;5034930;28;20057;-82
2023/09/01 01:08:14;;;;;;;;;;;;;;;13.69;100.00;101250.66;5034703;28;20037;-81
2023/09/01 01:11:06;;;;;;;8.70;3.20;;;;;;;13.68;100.00;101255.19;5034783;28;19920;-82
2023/09/01 01:13:36;;;;;;;5.65;2.83;;;;;;;13.66;100.00;101254.50;5034778;28;20266;-82
2023/09/01 01:16:02;;;;;;;7.13;2.90;;;;;;;13.66;100.00;101250.97;5034870;28;20025;-81
2023/09/01 01:18:29;;;;;;;9.45;3.38;;;;;;;13.66;100.00;101251.84;5034207;28;20113;-82
2023/09/01 01:21:05;;;;;;;9.23;3.30;;;;;;;13.65;100.00;101263.50;5034607;28;20118;-81
2023/09/01 01:23:31;;;;;;;5.80;3.10;;;;;;;13.65;100.00;101263.50;5034239;28;20254;-82
2023/09/01 01:25:57;;;;;;;6.13;2.75;;;;;;;13.64;100.00;101261.81;5034876;28;20084;-82
2023/09/01 01:28:22;;;;;;;6.97;2.92;;;;;;;13.65;100.00;101257.31;5033176;28;20390;-82
2023/09/01 01:30:48;;;;;;;6.18;3.00;;;;;;;13.65;100.00;101257.31;5034793;28;20064;-82
2023/09/01 01:33:30;;;;;;;9.63;3.55;;;;;;;13.63;100.00;101256.63;5034252;28;20034;-81
2023/09/01 01:36:17;;;;;;;6.88;3.13;;;;;;;13.61;100.00;101247.91;5033476;28;20355;-82
2023/09/01 01:38:48;;;;;;;11.02;3.08;;;;;;;13.60;100.00;101235.53;5034997;28;20059;-82
2023/09/01 01:41:43;;;;;;;6.07;2.95;;;;;;;13.57;100.00;101237.53;5034173;28;20053;-81
2023/09/01 01:44:12;;;;;;;9.25;3.58;;;;;;;13.52;100.00;101247.81;5025847;28;20049;-81
2023/09/01 01:46:39;;;;;;;8.98;3.15;;;;;;;13.47;100.00;101246.59;5032783;28;20029;-81
2023/09/01 01:49:10;;;;;;;5.43;3.38;;;;;;;13.42;100.00;101246.16;5034031;28;20132;-82
2023/09/01 01:51:36;;;;;;;9.15;3.80;;;;;;;13.39;100.00;101242.81;5034369;28;20038;-81
2023/09/01 01:54:02;;;;;;;8.05;3.78;;;;;;;13.36;100.00;101247.59;5034586;28;20036;-82
2023/09/01 01:56:28;;;;;;;7.65;3.85;;;;;;;13.32;100.00;101244.34;5032687;28;20124;-81
2023/09/01 01:58:53;;;;;;;6.40;3.80;;;;;;;13.30;100.00;101240.13;5034275;28;20112;-80
2023/09/01 02:01:18;;;;;;;13.07;4.63;;;;;;;13.27;100.00;101243.09;5032585;28;20065;-80
2023/09/01 02:03:44;;;;;;;9.88;4.38;;;;;;;13.26;100.00;101241.44;5033021;28;20092;-80
2023/09/01 02:06:10;;;;;;;11.85;4.28;;;;;;;13.26;100.00;101236.09;5034055;28;20186;-80
2023/09/01 02:08:35;;;;;;;10.05;4.78;;;;;;;13.26;100.00;101236.09;5033669;28;20052;-80
2023/09/01 02:11:01;;;;;;;7.72;4.75;;;;;;;13.28;100.00;101231.44;5033829;28;20026;-80
2023/09/01 02:13:26;;;;;;;10.77;3.83;;;;;;;13.28;100.00;101231.44;5032395;28;20037;-80
2023/09/01 02:15:53;;;;;;;8.57;4.35;;;;;;;13.27;100.00;101230.59;5033665;28;20088;-80
2023/09/01 02:18:19;;;;;;;9.93;4.32;;;;;;;13.27;100.00;101232.41;5033362;28;20036;-79
2023/09/01 02:20:44;;;;;;;10.73;4.75;;;;;;;13.27;100.00;101240.44;5033894;28;20033;-80
2023/09/01 02:23:09;;;;;;;12.52;5.40;;;;;;;13.26;100.00;101244.13;5032508;28;20167;-80
2023/09/01 02:25:37;;;;;;;14.10;6.32;;;;;;;13.24;100.00;101241.56;5033200;28;20045;-80
2023/09/01 02:28:04;;;;;;;15.73;6.30;;;;;;;13.27;100.00;101248.44;5033716;28;20030;-80
2023/09/01 02:30:29;;;;;;;12.80;6.10;;;;;;;13.24;100.00;101246.91;5033321;28;20112;-80
2023/09/01 02:32:54;;;;;;;13.98;6.18;;;;;;;13.26;100.00;101236.09;5032221;28;20090;-80
2023/09/01 02:35:20;;;;;;;13.95;6.47;;;;;;;13.26;100.00;101228.91;5032861;28;20065;-79
2023/09/01 02:37:45;;;;;;;13.63;6.53;;;;;;;13.25;100.00;101226.38;5032168;28;20030;-80
2023/09/01 02:40:10;;;;;;;15.18;6.72;;;;;;;13.27;100.00;101224.41;5033418;28;20053;-83
2023/09/01 02:42:40;;;;;;;11.90;6.30;;;;;;;13.27;100.00;101225.25;5033040;28;20105;-82
2023/09/01 02:45:07;;;;;;;13.05;6.40;;;;;;;13.29;100.00;101227.78;5033297;28;20037;-82
2023/09/01 02:47:33;;;;;;;18.42;6.82;;;;;;;13.29;100.00;101225.94;5032914;28;20033;-80
2023/09/01 02:49:58;;;;;;;15.00;6.47;;;;;;;13.31;100.00;101217.78;5033457;28;20083;-80
2023/09/01 02:52:24;;;;;;;11.32;6.13;;;;;;;13.32;100.00;101227.50;5032872;28;20036;-79
2023/09/01 02:54:49;;;;;;;12.60;6.22;;;;;;;13.31;100.00;101226.63;5033101;28;20029;-80
2023/09/01 02:57:14;;;;;;;9.80;5.88;;;;;;;13.34;100.00;101225.53;5032691;28;20176;-80
2023/09/01 02:59:39;;;;;;;12.82;6.72;;;;;;;13.34;100.00;101222.84;5015003;28;20073;-80
2023/09/01 03:02:05;;;;;;;9.82;5.80;;;;;;;13.36;100.00;101221.72;5032972;28;20030;-80
2023/09/01 03:04:30;;;;;;;16.75;6.50;;;;;;;13.36;100.00;101218.19;5031110;28;20038;-79
2023/09/01 03:06:59;;;;;;;11.07;5.85;;;;;;;13.35;100.00;101217.38;5032001;28;20050;-80
2023/09/01 03:09:24;;;;;;;17.52;6.05;;;;;;;13.36;100.00;101221.72;5032607;28;20033;-79
2023/09/01 03:11:50;;;;;;;18.20;6.03;;;;;;;13.37;100.00;101219.91;5031728;28;20087;-80
2023/09/01 03:14:15;;;;;;;11.65;5.90;;;;;;;13.38;100.00;101221.59;5031342;28;20030;-80
2023/09/01 03:16:43;;;;;;;10.23;5.57;;;;;;;13.38;100.00;101216.25;5032451;28;20034;-79
2023/09/01 03:19:09;;;;;;;12.88;6.07;;;;;;;13.37;100.00;101228.75;5032416;28;20474;-80
2023/09/01 03:21:34;;;;;;;15.43;6.05;;;;;;;13.38;100.00;101227.75;5031172;28;20033;-80
2023/09/01 03:23:59;;;;;;;13.35;6.57;;;;;;;13.39;100.00;101226.78;5032743;28;20128;-80
2023/09/01 03:26:25;;;;;;;14.18;6.15;;;;;;;13.41;100.00;101226.63;5032637;28;20041;-80
2023/09/01 03:28:50;;;;;;;14.70;6.20;;;;;;;13.40;100.00;101220.47;5032034;28;20044;-80
2023/09/01 03:31:16;;;;;;;15.52;6.72;;;;;;;13.42;100.00;101220.31;5031404;28;20044;-80
2023/09/01 03:33:43;;;;;;;14.43;6.28;;;;;;;13.40;100.00;101231.16;5032523;28;20051;-80
2023/09/01 03:36:08;;;;;;;14.32;6.38;;;;;;;13.43;100.00;101215.78;5032568;28;20029;-80
2023/09/01 03:38:35;;;;;;;13.65;7.47;;;;;;;13.42;100.00;101222.97;5031853;28;20111;-79
2023/09/01 03:41:01;;;;;;;16.75;6.10;;;;;;;13.42;100.00;101228.31;5032398;28;20037;-80
2023/09/01 03:43:27;;;;;;;12.77;5.90;;;;;;;13.42;100.00;101228.31;5032447;28;20034;-80
2023/09/01 03:45:52;;;;;;;19.63;6.60;;;;;;;13.42;100.00;101224.78;5030997;28;20041;-80
2023/09/01 03:48:17;;;;;;;20.55;7.35;;;;;;;13.40;100.00;101217.78;5032066;28;20406;-80
2023/09/01 03:50:43;;;;;;;15.98;6.32;;;;;;;13.40;100.00;101220.47;5032083;28;20045;-80
2023/09/01 03:53:08;;;;;;;15.07;6.63;;;;;;;13.41;100.00;101221.28;5032509;28;20057;-80
2023/09/01 03:55:34;;;;;;;11.68;5.80;;;;;;;13.40;100.00;101214.25;5032233;28;20037;-79
2023/09/01 03:58:00;;;;;;;13.13;6.50;;;;;;;13.39;100.00;101213.41;5032043;28;20033;-80
2023/09/01 04:00:25;;;;;;;14.93;6.55;;;;;;;13.39;100.00;101208.06;5031092;28;20037;-80
2023/09/01 04:02:51;;;;;;;14.20;6.80;;;;;;;13.40;100.00;101208.91;5032208;28;20721;-80
2023/09/01 04:05:16;;;;;;;15.82;7.95;;;;;;;13.40;100.00;101212.44;5032236;28;20462;-81
2023/09/01 04:07:42;;;;;;;16.10;6.80;;;;;;;13.40;100.00;101203.56;5031913;28;20493;-81
2023/09/01 04:10:08;;;;;;;14.75;6.60;;;;;;;13.40;100.00;101199.06;5032022;28;20041;-82
2023/09/01 04:12:34;;;;;;;12.73;7.15;;;;;;;13.41;100.00;101205.25;5031879;28;20041;-81
2023/09/01 04:14:59;;;;;;;15.02;6.68;;;;;;;13.40;100.00;101209.75;5032362;28;20033;-82
2023/09/01 04:17:26;;;;;;;14.85;7.30;;;;;;;13.39;100.00;101204.53;5032027;28;20045;-81
2023/09/01 04:19:52;;;;;;;12.75;6.95;;;;;;;13.39;100.00;101208.06;5031497;28;20034;-81
2023/09/01 04:22:17;;;;;;;15.50;7.85;;;;;;;13.38;100.00;101193.00;5032152;28;20472;-80
2023/09/01 04:24:43;;;;;;;13.60;6.88;;;;;;;13.37;100.00;101196.66;5030268;28;20033;-81
2023/09/01 04:27:08;;;;;;;14.38;7.53;;;;;;;13.38;100.00;101206.38;5033417;28;20033;-81
2023/09/01 04:29:35;;;;;;;15.05;8.32;;;;;;;13.38;100.00;101209.06;5034666;28;20025;-81
2023/09/01 04:32:01;;;;;;;18.95;7.38;;;;;;;13.38;100.00;101211.72;5035827;28;20033;-81
2023/09/01 04:34:26;;;;;;;15.70;7.55;;;;;;;13.38;100.00;101211.72;5035920;28;20030;-81
2023/09/01 04:36:51;;;;;;;16.55;7.90;;;;;;;13.38;100.00;101210.91;5035306;28;20037;-81
2023/09/01 04:39:17;;;;;;;16.98;7.50;;;;;;;13.38;100.00;101219.75;5018245;28;20041;-81
2023/09/01 04:41:43;;;;;;;14.35;7.93;;;;;;;13.36;100.00;101205.69;5017509;28;20036;-81
2023/09/01 04:44:08;;;;;;;17.40;8.30;;;;;;;13.37;100.00;101215.38;5035829;28;20033;-80
2023/09/01 04:46:33;;;;;;;19.33;8.50;;;;;;;13.38;100.00;101217.06;5035775;28;20524;-83
2023/09/01 04:49:00;;;;;;;19.67;8.35;;;;;;;13.37;100.00;101212.69;5035000;28;20077;-82
2023/09/01 04:51:25;;;;;;;15.77;7.75;;;;;;;13.37;100.00;101214.53;5035471;28;20064;-82
2023/09/01 04:53:51;;;;;;;18.58;8.55;;;;;;;13.38;100.00;101213.56;5035262;28;20048;-82
2023/09/01 04:56:16;;;;;;;16.35;8.13;;;;;;;13.38;100.00;101221.59;5035632;28;20116;-81
2023/09/01 04:58:41;;;;;;;15.38;7.85;;;;;;;13.37;100.00;101220.72;5035120;28;20070;-81
2023/09/01 05:01:07;;;;;;;16.35;7.95;;;;;;;13.36;100.00;101216.38;5035721;28;20034;-82
2023/09/01 05:03:32;;;;;;;17.05;8.43;;;;;;;13.38;100.00;101208.22;5035167;28;20149;-82
2023/09/01 05:05:57;;;;;;;13.93;7.82;;;;;;;13.39;100.00;101216.09;5034975;28;20038;-81
2023/09/01 05:08:23;;;;;;;17.85;9.18;;;;;;;13.39;100.00;101213.41;5035084;28;20038;-80
2023/09/01 05:10:51;;;;;;;15.13;8.40;;;;;;;13.40;100.00;101211.56;5035055;28;20087;-82
2023/09/01 05:13:16;;;;;;;15.70;8.23;;;;;;;13.40;100.00;101209.75;5035087;28;20474;-80
2023/09/01 05:15:41;;;;;;;20.42;11.18;;;;;;;13.43;100.00;101215.78;5034739;28;20034;-80
2023/09/01 05:18:07;;;;;;;18.48;9.52;;;;;;;13.44;100.00;101220.97;5035229;28;20061;-80
2023/09/01 05:20:32;;;;;;;15.45;9.07;;;;;;;13.45;100.00;101219.16;5035120;28;20033;-81
2023/09/01 05:22:58;;;;;;;16.90;8.60;;;;;;;13.46;100.00;101224.34;5033544;28;20481;-81
2023/09/01 05:25:23;;;;;;;15.65;8.60;;;;;;;13.46;100.00;101208.31;5033788;28;20034;-80
2023/09/01 05:27:49;;;;;;;21.10;9.45;;;;;;;13.49;100.00;101217.88;5034470;28;20505;-82
2023/09/01 05:30:14;;;;;;;19.02;8.45;;;;;;;13.55;100.00;101225.28;5033679;28;20037;-81
2023/09/01 05:32:39;;;;;;;15.50;8.55;;;;;;;13.57;100.00;101220.66;5035141;28;20060;-81
2023/09/01 05:35:05;;;;;;;17.10;8.15;;;;;;;13.61;100.00;101215.84;5034178;28;20034;-81
2023/09/01 05:37:31;;;;;;;13.95;8.13;;;;;;;13.65;100.00;101217.22;5033256;28;20124;-81
2023/09/01 05:39:56;;;;;;;14.55;8.02;;;;;;;13.68;100.00;101222.28;5034393;28;20141;-80
2023/09/01 05:42:22;;;;;;;15.93;8.82;;;;;;;13.70;100.00;101218.47;5033656;28;20103;-80
2023/09/01 05:44:47;;;;;;;14.38;8.05;;;;;;;13.74;100.00;101209.13;5034131;28;20037;-81
2023/09/01 05:47:12;;;;;;;11.75;7.93;;;;;;;13.75;100.00;101209.97;5034701;28;20072;-81
2023/09/01 05:49:38;;;;;;;15.52;8.18;;;;;;;13.76;100.00;101214.31;5034331;28;20448;-80
2023/09/01 05:52:03;;;;;;;14.43;8.27;;;;;;;13.78;100.00;101219.50;5033246;28;20425;-80
2023/09/01 05:54:29;;;;;;;18.70;7.95;;;;;;;13.77;100.00;101226.72;5034740;28;20548;-80
2023/09/01 05:56:55;;;;;;;12.07;7.82;;;;;;;13.77;100.00;101223.19;5032612;28;20547;-80
2023/09/01 05:59:20;;;;;;;13.65;7.35;;;;;;;13.78;100.00;101235.56;5034346;28;20041;-80
2023/09/01 06:01:46;;;;;;;13.75;7.75;;;;;;;13.80;100.00;101241.63;5034118;28;20048;-80
2023/09/01 06:04:12;;;;;;;14.82;8.77;;;;;;;13.80;100.00;101230.91;5034288;28;20401;-80
2023/09/01 06:06:37;;;;;;;16.70;7.72;;;;;;;13.80;100.00;101231.75;5034411;28;20108;-82
2023/09/01 06:09:09;;;;;;;15.20;8.23;;;;;;;13.84;100.00;101232.28;5032418;28;20041;-82
2023/09/01 06:11:37;;;;;;;13.10;7.97;;;;;;;13.86;100.00;101235.66;5033988;28;20469;-82
2023/09/01 06:14:03;;;;;;;19.00;7.97;;;;;;;13.87;100.00;101227.50;5032595;28;20428;-82
2023/09/01 06:16:28;;;;;;;14.00;8.82;;;;;;;13.88;100.00;101228.31;5032907;28;20037;-81
2023/09/01 06:18:54;;;;;;;21.33;13.00;;;;;;;13.90;100.00;101237.88;4999835;28;20078;-82
2023/09/01 06:21:20;;;;;;;12.25;7.35;;;;;;;13.95;100.00;101236.59;5034097;28;20056;-81
2023/09/01 06:23:47;;;;;;;13.52;7.47;;;;;;;13.95;100.00;101233.91;5033905;28;20167;-82
2023/09/01 06:26:19;;;;;;;12.52;7.57;;;;;;;13.99;100.00;101236.13;5032256;28;20088;-83
2023/09/01 06:28:46;;;;;;;14.77;7.30;;;;;;;14.03;100.00;101244.69;5016483;28;20481;-82
2023/09/01 06:31:13;;;;;;;13.88;7.38;;;;;;;14.05;100.00;101240.03;5033450;28;20037;-82
2023/09/01 06:33:42;;;;;;;12.20;7.50;;;;;;;14.07;100.00;101238.88;5033795;28;20446;-84
2023/09/01 06:36:09;;;;;;;12.85;7.28;;;;;;;14.08;100.00;101243.25;5033591;28;20037;-82
2023/09/01 06:38:34;;;;;;;12.20;7.50;;;;;;;14.13;100.00;101255.34;5033632;28;20033;-83
2023/09/01 06:41:03;;;;;;;13.50;7.63;;;;;;;14.15;100.00;101248.81;5032049;28;20033;-82
2023/09/01 06:43:29;;;;;;;17.17;7.70;;;;;;;14.15;100.00;101245.31;5033584;28;20034;-82
2023/09/01 06:45:54;;;;;;;13.40;7.82;;;;;;;14.14;100.00;101247.16;5032934;28;20044;-81
2023/09/01 06:48:20;;;;;;;14.30;7.50;;;;;;;14.17;100.00;101248.69;5033339;28;20037;-81
2023/09/01 06:50:45;;;;;;;13.80;7.35;;;;;;;14.19;100.00;101252.88;5033188;28;20100;-82
2023/09/01 06:53:10;;;;;;;14.95;7.90;;;;;;;14.22;100.00;101249.88;5033044;28;20038;-86
2023/09/01 06:55:36;;;;;;;10.77;6.70;;;;;;;14.25;100.00;101254.94;5032190;28;20466;-81
2023/09/01 06:58:03;;;;;;;10.63;6.75;;;;;;;14.26;100.00;101245.09;5033486;28;20458;-86
2023/09/01 07:00:28;;;;;;;13.65;7.25;;;;;;;14.27;100.00;101228.00;5034437;28;20111;-87
2023/09/01 07:02:54;;;;;;;13.20;7.03;;;;;;;14.30;100.00;101249.13;5035811;28;20485;-83
2023/09/01 07:05:19;;;;;;;9.90;6.85;;;;;;;14.32;100.00;101236.44;5034074;28;20045;-87
2023/09/01 07:07:44;;;;;;;13.45;7.03;;;;;;;14.32;100.00;101243.66;5034577;28;20159;-89
2023/09/01 07:10:10;;;;;;;16.45;7.22;;;;;;;14.32;100.00;101239.13;5034030;28;20041;-86
2023/09/01 07:12:35;;;;;;;14.73;7.30;;;;;;;14.33;100.00;101235.47;5035021;28;20065;-86
2023/09/01 07:15:03;;;;;;;11.10;6.43;;;;;;;14.33;100.00;101243.50;5034460;28;20029;-87
2023/09/01 07:17:29;;;;;;;10.38;6.55;;;;;;;14.33;100.00;101242.63;5033700;28;20037;-87
2023/09/01 07:19:54;;;;;;;15.52;8.10;;;;;;;14.31;100.00;101240.09;5033072;28;20466;-86
2023/09/01 07:22:19;;;;;;;8.82;6.25;;;;;;;14.34;100.00;101236.28;5032675;28;20041;-88
2023/09/01 07:24:45;;;;;;;12.82;7.80;;;;;;;14.32;100.00;101232.94;5033311;28;20029;-88
2023/09/01 07:27:10;;;;;;;8.80;5.88;;;;;;;14.34;100.00;101229.09;5031503;28;20084;-89
2023/09/01 07:29:36;;;;;;;10.55;7.00;;;;;;;14.38;100.00;101235.00;5033109;28;20469;-88
2023/09/01 07:32:03;;;;;;;12.10;6.82;;;;;;;14.41;100.00;101235.50;5031159;28;20038;-85
2023/09/01 07:34:28;;;;;;;11.55;6.07;;;;;;;14.44;100.00;101234.38;5032767;28;20474;-83
2023/09/01 07:36:53;;;;;;;13.73;6.55;;;;;;;14.50;100.00;101236.41;5033031;28;20083;-86
2023/09/01 07:39:19;;;;;;;10.10;6.00;;;;;;;14.56;100.00;101229.63;5032146;28;20083;-90
2023/09/01 07:41:44;;;;;;;11.63;6.03;;;;;;;14.60;100.00;101230.97;5033400;28;20033;-87
2023/09/01 07:44:10;;;;;;;10.73;6.63;;;;;;;14.66;100.00;101225.03;5032838;28;20520;-87
2023/09/01 07:46:35;;;;;;;11.13;6.05;;;;;;;14.71;100.00;101230.75;5032986;28;20100;-86
2023/09/01 07:49:02;;;;;;;10.75;6.32;;;;;;;14.76;100.00;101227.59;5032530;28;20117;-87
2023/09/01 07:51:27;;;;;;;11.23;6.43;;;;;;;14.79;100.00;101225.47;5032868;28;20049;-87
2023/09/01 07:53:54;;;;;;;11.43;6.40;;;;;;;14.84;100.00;101229.47;5032797;28;20029;-86
2023/09/01 07:56:20;;;;;;;11.80;6.00;;;;;;;14.87;100.00;101232.72;5033960;28;20038;-89
2023/09/01 07:58:45;;;;;;;10.88;5.82;;;;;;;14.92;100.00;101224.19;5031371;28;20358;-87
2023/09/01 08:01:11;;;;;;;11.65;6.30;;;;;;;14.96;100.00;101234.44;5033135;28;20025;-89
2023/09/01 08:03:36;;;;;;;14.10;6.10;;;;;;;15.00;100.00;101234.94;5035392;28;20048;-86
2023/09/01 08:06:04;;;;;;;11.40;5.97;;;;;;;15.02;100.00;101241.00;5036540;28;20033;-82
2023/09/01 08:08:30;;;;;;;9.43;5.70;;;;;;;15.08;100.00;101234.19;5035415;28;20038;-85
2023/09/01 08:10:56;;;;;;;8.43;5.78;;;;;;;15.08;100.00;101232.31;5036644;28;20025;-86
2023/09/01 08:13:22;;;;;;;8.05;5.43;;;;;;;15.12;100.00;101232.84;5036567;28;20037;-88
2023/09/01 08:15:48;;;;;;;11.23;6.00;;;;;;;15.18;100.00;101234.03;5036619;28;20473;-87
2023/09/01 08:18:13;;;;;;;10.02;5.60;;;;;;;15.23;100.00;101247.81;5034688;28;20401;-87
2023/09/01 08:20:40;;;;;;;12.57;5.75;;;;;;;15.27;100.00;101239.31;5036693;28;20025;-86
2023/09/01 08:23:05;;;;;;;10.95;5.72;;;;;;;15.30;100.00;101240.78;5036109;28;20029;-84
2023/09/01 08:25:32;;;;;;;9.85;5.47;;;;;;;15.35;100.00;101246.53;5036334;28;20107;-86
2023/09/01 08:27:58;;;;;;;10.75;5.70;;;;;;;15.39;100.00;101250.59;5036465;28;20110;-86
2023/09/01 08:30:23;;;;;;;13.43;6.32;;;;;;;15.40;100.00;101252.25;5035778;28;20033;-84
2023/09/01 08:32:49;;;;;;;7.45;5.57;;;;;;;15.40;100.00;101246.88;5036399;28;20038;-83
2023/09/01 08:35:14;;;;;;;10.75;6.13;;;;;;;15.44;100.00;101256.28;5035357;28;20528;-83
2023/09/01 08:37:39;;;;;;;11.98;5.88;;;;;;;15.47;100.00;101247.91;5035608;28;20080;-84
2023/09/01 08:40:09;;;;;;;10.43;5.57;;;;;;;15.47;100.00;101250.59;5036110;28;20112;-85
2023/09/01 08:42:37;;;;;;;9.23;5.35;;;;;;;15.46;100.00;101256.13;5036011;28;20036;-82
2023/09/01 08:45:04;;;;;;;10.18;5.85;;;;;;;15.48;100.00;101260.34;5035771;28;20124;-83
2023/09/01 08:47:36;;;;;;;9.25;5.05;;;;;;;15.49;100.00;101255.81;5035680;28;20033;-82
2023/09/01 08:50:01;;;;;;;14.25;5.95;;;;;;;15.47;100.00;101264.00;5035827;28;20049;-84
2023/09/01 08:52:27;;;;;;;9.50;5.30;;;;;;;15.46;100.00;101258.81;5035070;28;20064;-82
2023/09/01 08:54:53;;;;;;;9.82;5.55;;;;;;;15.46;100.00;101258.81;5034791;28;20124;-83
2023/09/01 08:57:19;;;;;;;10.38;5.35;;;;;;;15.47;100.00;101263.19;5035170;28;20040;-83
2023/09/01 08:59:44;;;;;;;10.13;5.93;;;;;;;15.48;100.00;101272.88;5035482;28;20117;-84
2023/09/01 09:02:09;;;;;;;9.82;5.93;;;;;;;15.48;100.00;101268.38;5035276;28;20032;-82
2023/09/01 09:04:35;;;;;;;10.93;5.82;;;;;;;15.46;100.00;101264.16;5035666;28;20037;-84
2023/09/01 09:07:18;;;;;;;10.32;6.22;;;;;;;15.44;100.00;101274.22;5035532;28;20537;-85
2023/09/01 09:09:55;;;;;;;8.85;5.90;;;;;;;15.44;100.00;101272.38;5034411;28;20076;-83
2023/09/01 09:12:33;;;;;;;10.98;6.18;;;;;;;15.44;100.00;101277.75;5033371;28;20033;-83
2023/09/01 09:14:58;;;;;;;10.93;6.22;;;;;;;15.47;100.00;101280.09;5035449;28;20033;-83
2023/09/01 09:17:37;;;;;;;12.18;6.18;;;;;;;15.49;100.00;101278.09;5034869;28;20103;-83
2023/09/01 09:20:04;;;;;;;9.18;6.22;;;;;;;15.59;100.00;101271.78;5035325;28;20037;-83
2023/09/01 09:22:29;;;;;;;12.63;6.43;;;;;;;15.71;100.00;101275.84;5034739;28;20033;-83
2023/09/01 09:24:55;;;;;;;11.77;5.90;;;;;;;15.82;100.00;101282.78;5035003;28;20133;-84
2023/09/01 09:27:22;;;;;;;12.00;5.95;;;;;;;15.99;100.00;101273.78;5016952;28;20038;-83
2023/09/01 09:29:48;;;;;;;10.43;6.63;;;;;;;16.19;100.00;101273.47;5035508;28;20053;-84
2023/09/01 09:32:24;;;;;;;12.32;6.10;;;;;;;16.39;100.00;101263.25;5033369;28;20033;-83
2023/09/01 09:35:13;;;;;;;13.60;5.85;;;;;;;16.69;100.00;101264.44;5034918;28;20029;-84
2023/09/01 09:37:40;;;;;;;6.43;5.35;;;;;;;17.20;100.00;101279.53;5034457;28;20026;-83
2023/09/01 09:40:16;;;;;;;9.73;5.40;;;;;;;17.87;100.00;101284.47;5033877;28;20029;-83
2023/09/01 09:42:43;;;;;;;9.23;4.88;;;;;;;18.33;100.00;101287.25;5033831;28;20029;-83
2023/09/01 09:45:32;;;;;;;9.45;6.07;;;;;;;18.29;100.00;101290.47;5034697;28;20072;-83
2023/09/01 09:48:05;;;;;;;10.52;5.88;;;;;;;18.12;100.00;101297.81;5022741;28;20135;-84
2023/09/01 09:50:32;;;;;;;10.30;6.22;;;;;;;17.90;100.00;101294.06;5034536;28;20057;-84
2023/09/01 09:53:00;;;;;;;11.98;6.05;;;;;;;17.64;100.00;101295.16;5033517;28;20063;-84
2023/09/01 09:55:30;;;;;;;10.23;5.70;;;;;;;17.43;100.00;101298.44;5034383;28;20041;-84
2023/09/01 09:58:07;;;;;;;10.73;6.30;;;;;;;17.25;100.00;101295.97;5035139;28;20036;-82
2023/09/01 10:00:40;;;;;;;10.80;6.28;;;;;;;17.18;100.00;101290.44;5034388;28;20029;-82
2023/09/01 10:03:07;;;;;;;12.23;6.20;;;;;;;17.20;100.00;101287.59;5034910;28;20087;-85
2023/09/01 10:05:33;;;;;;;7.95;6.60;;;;;;;17.27;100.00;101296.63;5032884;28;20043;-84
2023/09/01 10:08:05;;;;;;;12.52;6.57;;;;;;;17.35;100.00;101290.41;5034433;28;20025;-83
2023/09/01 10:10:33;;;;;;;11.95;7.45;;;;;;;17.38;100.00;101309.72;5033565;28;20057;-82
2023/09/01 10:13:04;;;;;;;10.18;7.38;;;;;;;17.52;100.00;101318.06;5034153;28;20487;-83
2023/09/01 10:15:33;;;;;;;;;;;;;;;17.61;100.00;101314.34;5034094;28;20029;-83
2023/09/01 10:18:02;;;;;;;12.05;6.65;;;;;;;17.57;100.00;101313.84;5033788;28;19972;-83
2023/09/01 10:20:40;;;;;;;11.40;7.00;;;;;;;17.56;100.00;101320.25;5033492;28;20104;-81
2023/09/01 10:23:07;;;;;;;11.27;6.78;;;;;;;17.62;100.00;101318.72;5033530;28;20405;-83
2023/09/01 10:25:34;;;;;;;11.05;6.50;;;;;;;17.66;100.00;101333.50;5032761;28;20040;-83
2023/09/01 10:28:11;;;;;;;10.50;6.80;;;;;;;17.71;100.00;101333.81;5032510;28;20033;-82
2023/09/01 10:30:44;;;;;;;10.82;6.72;;;;;;;17.79;100.00;101331.09;5032960;28;20033;-82
2023/09/01 10:33:26;;;;;;;9.63;7.35;;;;;;;17.87;100.00;101337.44;5033548;28;20124;-82
2023/09/01 10:35:57;;;;;;;10.93;6.82;;;;;;;17.92;100.00;101341.31;5033775;28;20029;-81
2023/09/01 10:38:35;;;;;;;;;;;;;;;17.98;100.00;101331.72;5033288;28;20393;-83
2023/09/01 10:41:00;;;;;;;10.75;6.70;;;;;;;18.19;100.00;101332.94;5034001;28;19967;-83
2023/09/01 10:43:52;;;;;;;12.52;7.20;;;;;;;18.64;100.00;101332.13;5033178;28;20056;-85
2023/09/01 10:46:17;;;;;;;11.93;6.20;;;;;;;18.94;100.00;101332.22;5033764;28;20105;-87
2023/09/01 10:48:49;;;;;;;12.60;7.30;;;;;;;19.03;100.00;101333.88;5032529;28;20243;-84
2023/09/01 10:51:16;;;;;;;10.98;8.20;;;;;;;19.18;100.00;101336.59;5032062;28;20034;-85
2023/09/01 10:53:42;;;;;;;14.68;6.85;;;;;;;19.24;100.00;101334.97;5032944;28;20524;-86
2023/09/01 10:56:12;;;;;;;9.45;6.55;;;;;;;19.29;100.00;101331.75;5031909;28;20029;-81
2023/09/01 10:58:44;;;;;;;12.60;6.57;;;;;;;19.24;100.00;101326.06;5032358;28;20056;-79
2023/09/01 11:01:33;;;;;;;9.00;6.63;;;;;;;18.95;100.00;101333.91;5033414;28;20037;-87
2023/09/01 11:04:14;;;;;;;9.98;6.63;;;;;;;19.00;100.00;101336.06;5033340;28;20377;-88
2023/09/01 11:07:00;;;;;;;9.10;6.22;;;;;;;18.94;100.00;101336.81;5033079;28;20033;-84
2023/09/01 11:09:32;;;;;;;10.18;6.38;;;;;;;18.90;100.00;101347.13;5032978;28;20484;-86
2023/09/01 11:11:57;;;;;;;12.25;6.35;;;;;;;18.92;100.00;101347.78;5033182;28;20055;-90
2023/09/01 11:14:23;;;;;;;14.50;6.78;;;;;;;19.02;100.00;101347.53;5032652;28;20458;-89
2023/09/01 11:16:48;;;;;;;10.40;7.20;;;;;;;19.10;100.00;101346.59;5032977;28;20473;-86
2023/09/01 11:19:14;;;;;;;18.13;6.95;;;;;;;19.12;100.00;101331.94;5033640;28;20029;-87
2023/09/01 11:21:41;;;;;;;8.60;6.47;;;;;;;19.13;100.00;101335.44;5032491;28;20029;-88
2023/09/01 11:24:07;;;;;;;8.20;6.13;;;;;;;19.13;100.00;101335.44;5033990;28;20049;-88
2023/09/01 11:26:36;;;;;;;8.05;5.32;;;;;;;19.19;100.00;101332.84;5033542;28;20030;-86
2023/09/01 11:29:02;;;;;;;11.57;6.50;;;;;;;19.32;100.00;101343.00;5033397;28;20036;-85